sensor_id;sensor_type;location;lat;lon;timestamp;P1;durP1;ratioP1;P2;durP2;ratioP2
75639;SDS011;64233;51.486;6.332;2023-11-18T00:01:33;25.42;;;11.25;;
75639;SDS011;64233;51.486;6.332;2023-11-18T00:03:59;21.48;;;11.90;;
75639;SDS011;64233;51.486;6.332;2023-11-18T00:06:24;22.30;;;10.80;;
75639;SDS011;64233;51.486;6.332;2023-11-18T00:08:49;26.25;;;11.90;;
75639;SDS011;64233;51.486;6.332;2023-11-18T00:11:15;24.17;;;11.52;;
75639;SDS011;64233;51.486;6.332;2023-11-18T00:13:40;24.23;;;10.98;;
75639;SDS011;64233;51.486;6.332;2023-11-18T00:16:07;27.52;;;10.75;;
75639;SDS011;64233;51.486;6.332;2023-11-18T00:18:37;21.33;;;10.77;;
75639;SDS011;64233;51.486;6.332;2023-11-18T00:21:04;18.60;;;10.75;;
75639;SDS011;64233;51.486;6.332;2023-11-18T00:23:30;27.98;;;11.73;;
75639;SDS011;64233;51.486;6.332;2023-11-18T00:25:55;23.52;;;9.20;;
75639;SDS011;64233;51.486;6.332;2023-11-18T00:28:21;20.30;;;9.05;;
75639;SDS011;64233;51.486;6.332;2023-11-18T00:30:46;19.00;;;9.48;;
75639;SDS011;64233;51.486;6.332;2023-11-18T00:33:11;20.83;;;9.20;;
75639;SDS011;64233;51.486;6.332;2023-11-18T00:35:37;18.65;;;9.60;;
75639;SDS011;64233;51.486;6.332;2023-11-18T00:38:02;19.67;;;9.45;;
75639;SDS011;64233;51.486;6.332;2023-11-18T00:40:27;19.67;;;8.85;;
75639;SDS011;64233;51.486;6.332;2023-11-18T00:42:54;24.17;;;9.45;;
75639;SDS011;64233;51.486;6.332;2023-11-18T00:45:23;32.35;;;11.30;;
75639;SDS011;64233;51.486;6.332;2023-11-18T00:47:49;20.55;;;9.27;;
75639;SDS011;64233;51.486;6.332;2023-11-18T00:50:14;23.40;;;9.90;;
75639;SDS011;64233;51.486;6.332;2023-11-18T00:52:39;22.80;;;10.65;;
75639;SDS011;64233;51.486;6.332;2023-11-18T00:55:09;23.60;;;11.05;;
75639;SDS011;64233;51.486;6.332;2023-11-18T00:57:36;23.95;;;10.48;;
75639;SDS011;64233;51.486;6.332;2023-11-18T01:00:04;20.15;;;10.13;;
75639;SDS011;64233;51.486;6.332;2023-11-18T01:02:31;17.02;;;8.68;;
75639;SDS011;64233;51.486;6.332;2023-11-18T01:04:56;25.33;;;10.73;;
75639;SDS011;64233;51.486;6.332;2023-11-18T01:07:21;21.17;;;8.20;;
75639;SDS011;64233;51.486;6.332;2023-11-18T01:09:47;21.35;;;10.85;;
75639;SDS011;64233;51.486;6.332;2023-11-18T01:12:12;22.88;;;9.90;;
75639;SDS011;64233;51.486;6.332;2023-11-18T01:14:38;18.27;;;8.20;;
75639;SDS011;64233;51.486;6.332;2023-11-18T01:17:04;20.50;;;8.68;;
75639;SDS011;64233;51.486;6.332;2023-11-18T01:19:30;17.02;;;8.77;;
75639;SDS011;64233;51.486;6.332;2023-11-18T01:21:56;23.88;;;10.93;;
75639;SDS011;64233;51.486;6.332;2023-11-18T01:24:22;21.55;;;10.05;;
75639;SDS011;64233;51.486;6.332;2023-11-18T01:26:47;20.52;;;10.50;;
75639;SDS011;64233;51.486;6.332;2023-11-18T01:29:12;23.98;;;11.10;;
75639;SDS011;64233;51.486;6.332;2023-11-18T01:31:38;19.55;;;9.23;;
75639;SDS011;64233;51.486;6.332;2023-11-18T01:34:06;19.73;;;10.45;;
75639;SDS011;64233;51.486;6.332;2023-11-18T01:36:32;23.65;;;11.63;;
75639;SDS011;64233;51.486;6.332;2023-11-18T01:38:57;24.27;;;10.85;;
75639;SDS011;64233;51.486;6.332;2023-11-18T01:41:23;21.88;;;9.82;;
75639;SDS011;64233;51.486;6.332;2023-11-18T01:43:48;21.35;;;9.85;;
75639;SDS011;64233;51.486;6.332;2023-11-18T01:46:14;16.98;;;9.70;;
75639;SDS011;64233;51.486;6.332;2023-11-18T01:48:42;21.25;;;10.23;;
75639;SDS011;64233;51.486;6.332;2023-11-18T01:51:08;20.30;;;10.38;;
75639;SDS011;64233;51.486;6.332;2023-11-18T01:53:39;18.40;;;8.15;;
75639;SDS011;64233;51.486;6.332;2023-11-18T01:56:07;20.92;;;9.63;;
75639;SDS011;64233;51.486;6.332;2023-11-18T01:58:33;17.98;;;8.65;;
75639;SDS011;64233;51.486;6.332;2023-11-18T02:01:00;14.90;;;8.77;;
75639;SDS011;64233;51.486;6.332;2023-11-18T02:03:27;19.38;;;11.10;;
75639;SDS011;64233;51.486;6.332;2023-11-18T02:05:53;14.13;;;8.40;;
75639;SDS011;64233;51.486;6.332;2023-11-18T02:08:19;19.42;;;9.18;;
75639;SDS011;64233;51.486;6.332;2023-11-18T02:10:48;22.90;;;10.70;;
75639;SDS011;64233;51.486;6.332;2023-11-18T02:13:27;15.23;;;10.07;;
75639;SDS011;64233;51.486;6.332;2023-11-18T02:15:56;20.98;;;10.60;;
75639;SDS011;64233;51.486;6.332;2023-11-18T02:18:25;19.80;;;10.18;;
75639;SDS011;64233;51.486;6.332;2023-11-18T02:20:54;22.55;;;10.00;;
75639;SDS011;64233;51.486;6.332;2023-11-18T02:23:22;19.60;;;10.60;;
75639;SDS011;64233;51.486;6.332;2023-11-18T02:25:48;21.17;;;8.80;;
75639;SDS011;64233;51.486;6.332;2023-11-18T02:28:14;14.55;;;8.85;;
75639;SDS011;64233;51.486;6.332;2023-11-18T02:30:40;20.15;;;10.35;;
75639;SDS011;64233;51.486;6.332;2023-11-18T02:33:09;25.65;;;10.25;;
75639;SDS011;64233;51.486;6.332;2023-11-18T02:35:51;21.85;;;10.95;;
75639;SDS011;64233;51.486;6.332;2023-11-18T02:38:22;17.52;;;10.23;;
75639;SDS011;64233;51.486;6.332;2023-11-18T02:40:53;18.95;;;10.68;;
75639;SDS011;64233;51.486;6.332;2023-11-18T02:43:23;20.42;;;9.77;;
75639;SDS011;64233;51.486;6.332;2023-11-18T02:45:53;17.85;;;9.02;;
75639;SDS011;64233;51.486;6.332;2023-11-18T02:48:21;18.20;;;9.32;;
75639;SDS011;64233;51.486;6.332;2023-11-18T02:50:46;25.48;;;9.63;;
75639;SDS011;64233;51.486;6.332;2023-11-18T02:53:11;19.85;;;9.00;;
75639;SDS011;64233;51.486;6.332;2023-11-18T02:55:37;17.67;;;9.90;;
75639;SDS011;64233;51.486;6.332;2023-11-18T02:58:02;17.52;;;8.65;;
75639;SDS011;64233;51.486;6.332;2023-11-18T03:00:27;20.30;;;8.90;;
75639;SDS011;64233;51.486;6.332;2023-11-18T03:02:53;18.48;;;8.48;;
75639;SDS011;64233;51.486;6.332;2023-11-18T03:05:18;18.38;;;10.05;;
75639;SDS011;64233;51.486;6.332;2023-11-18T03:07:44;17.15;;;9.82;;
75639;SDS011;64233;51.486;6.332;2023-11-18T03:10:14;20.23;;;9.82;;
75639;SDS011;64233;51.486;6.332;2023-11-18T03:12:46;24.10;;;8.82;;
75639;SDS011;64233;51.486;6.332;2023-11-18T03:15:12;19.10;;;9.07;;
75639;SDS011;64233;51.486;6.332;2023-11-18T03:17:37;15.90;;;9.13;;
75639;SDS011;64233;51.486;6.332;2023-11-18T03:20:03;16.63;;;8.63;;
75639;SDS011;64233;51.486;6.332;2023-11-18T03:22:34;22.42;;;9.38;;
75639;SDS011;64233;51.486;6.332;2023-11-18T03:24:59;18.70;;;9.50;;
75639;SDS011;64233;51.486;6.332;2023-11-18T03:27:25;16.48;;;8.52;;
75639;SDS011;64233;51.486;6.332;2023-11-18T03:29:50;20.27;;;9.60;;
75639;SDS011;64233;51.486;6.332;2023-11-18T03:32:15;23.58;;;10.73;;
75639;SDS011;64233;51.486;6.332;2023-11-18T03:34:41;16.02;;;9.43;;
75639;SDS011;64233;51.486;6.332;2023-11-18T03:37:06;20.70;;;10.32;;
75639;SDS011;64233;51.486;6.332;2023-11-18T03:39:31;22.38;;;10.27;;
75639;SDS011;64233;51.486;6.332;2023-11-18T03:41:56;23.30;;;9.90;;
75639;SDS011;64233;51.486;6.332;2023-11-18T03:44:22;27.35;;;12.48;;
75639;SDS011;64233;51.486;6.332;2023-11-18T03:46:49;25.20;;;10.70;;
75639;SDS011;64233;51.486;6.332;2023-11-18T03:49:14;24.17;;;10.50;;
75639;SDS011;64233;51.486;6.332;2023-11-18T03:51:39;17.85;;;9.63;;
75639;SDS011;64233;51.486;6.332;2023-11-18T03:54:05;22.02;;;9.30;;
75639;SDS011;64233;51.486;6.332;2023-11-18T03:56:33;18.35;;;8.63;;
75639;SDS011;64233;51.486;6.332;2023-11-18T03:58:58;19.52;;;9.40;;
75639;SDS011;64233;51.486;6.332;2023-11-18T04:01:24;20.75;;;10.27;;
75639;SDS011;64233;51.486;6.332;2023-11-18T04:03:53;17.92;;;10.00;;
75639;SDS011;64233;51.486;6.332;2023-11-18T04:06:20;24.70;;;10.95;;
75639;SDS011;64233;51.486;6.332;2023-11-18T04:08:46;21.73;;;11.20;;
75639;SDS011;64233;51.486;6.332;2023-11-18T04:11:15;20.38;;;8.50;;
75639;SDS011;64233;51.486;6.332;2023-11-18T04:13:40;16.98;;;8.95;;
75639;SDS011;64233;51.486;6.332;2023-11-18T04:16:14;22.67;;;9.52;;
75639;SDS011;64233;51.486;6.332;2023-11-18T04:18:41;20.23;;;10.00;;
75639;SDS011;64233;51.486;6.332;2023-11-18T04:21:08;24.08;;;9.60;;
75639;SDS011;64233;51.486;6.332;2023-11-18T04:23:43;18.48;;;9.80;;
75639;SDS011;64233;51.486;6.332;2023-11-18T04:26:11;19.20;;;9.70;;
75639;SDS011;64233;51.486;6.332;2023-11-18T04:28:37;16.50;;;8.88;;
75639;SDS011;64233;51.486;6.332;2023-11-18T04:31:02;21.77;;;9.93;;
75639;SDS011;64233;51.486;6.332;2023-11-18T04:33:30;18.92;;;9.90;;
75639;SDS011;64233;51.486;6.332;2023-11-18T04:35:55;17.92;;;9.05;;
75639;SDS011;64233;51.486;6.332;2023-11-18T04:38:24;20.90;;;9.13;;
75639;SDS011;64233;51.486;6.332;2023-11-18T04:40:51;18.52;;;9.23;;
75639;SDS011;64233;51.486;6.332;2023-11-18T04:43:19;27.75;;;11.32;;
75639;SDS011;64233;51.486;6.332;2023-11-18T04:45:45;24.98;;;10.82;;
75639;SDS011;64233;51.486;6.332;2023-11-18T04:48:11;22.48;;;10.00;;
75639;SDS011;64233;51.486;6.332;2023-11-18T04:50:38;24.63;;;12.20;;
75639;SDS011;64233;51.486;6.332;2023-11-18T04:53:04;22.05;;;9.38;;
75639;SDS011;64233;51.486;6.332;2023-11-18T04:55:33;25.88;;;9.70;;
75639;SDS011;64233;51.486;6.332;2023-11-18T04:57:58;23.02;;;9.70;;
75639;SDS011;64233;51.486;6.332;2023-11-18T05:00:23;20.58;;;8.32;;
75639;SDS011;64233;51.486;6.332;2023-11-18T05:02:49;26.27;;;9.05;;
75639;SDS011;64233;51.486;6.332;2023-11-18T05:05:15;18.30;;;9.45;;
75639;SDS011;64233;51.486;6.332;2023-11-18T05:07:41;23.77;;;9.48;;
75639;SDS011;64233;51.486;6.332;2023-11-18T05:10:07;16.27;;;8.07;;
75639;SDS011;64233;51.486;6.332;2023-11-18T05:12:33;24.40;;;9.38;;
75639;SDS011;64233;51.486;6.332;2023-11-18T05:14:59;19.92;;;8.50;;
75639;SDS011;64233;51.486;6.332;2023-11-18T05:17:24;20.80;;;9.85;;
75639;SDS011;64233;51.486;6.332;2023-11-18T05:19:51;27.15;;;10.68;;
75639;SDS011;64233;51.486;6.332;2023-11-18T05:22:16;26.63;;;10.13;;
75639;SDS011;64233;51.486;6.332;2023-11-18T05:24:41;25.33;;;10.00;;
75639;SDS011;64233;51.486;6.332;2023-11-18T05:27:07;20.33;;;9.40;;
75639;SDS011;64233;51.486;6.332;2023-11-18T05:29:32;26.48;;;10.80;;
75639;SDS011;64233;51.486;6.332;2023-11-18T05:31:57;25.92;;;10.52;;
75639;SDS011;64233;51.486;6.332;2023-11-18T05:34:23;29.25;;;11.32;;
75639;SDS011;64233;51.486;6.332;2023-11-18T05:36:48;25.88;;;9.95;;
75639;SDS011;64233;51.486;6.332;2023-11-18T05:39:19;21.92;;;8.43;;
75639;SDS011;64233;51.486;6.332;2023-11-18T05:41:45;30.30;;;12.88;;
75639;SDS011;64233;51.486;6.332;2023-11-18T05:44:14;27.27;;;11.45;;
75639;SDS011;64233;51.486;6.332;2023-11-18T05:46:44;30.13;;;10.75;;
75639;SDS011;64233;51.486;6.332;2023-11-18T05:49:11;27.45;;;11.27;;
75639;SDS011;64233;51.486;6.332;2023-11-18T05:51:38;27.77;;;11.48;;
75639;SDS011;64233;51.486;6.332;2023-11-18T05:54:05;28.25;;;12.07;;
75639;SDS011;64233;51.486;6.332;2023-11-18T05:56:31;24.10;;;9.13;;
75639;SDS011;64233;51.486;6.332;2023-11-18T05:58:57;30.60;;;11.02;;
75639;SDS011;64233;51.486;6.332;2023-11-18T06:01:23;21.30;;;10.18;;
75639;SDS011;64233;51.486;6.332;2023-11-18T06:03:49;25.88;;;11.07;;
75639;SDS011;64233;51.486;6.332;2023-11-18T06:06:15;31.67;;;12.85;;
75639;SDS011;64233;51.486;6.332;2023-11-18T06:08:41;27.98;;;11.32;;
75639;SDS011;64233;51.486;6.332;2023-11-18T06:11:10;25.33;;;9.88;;
75639;SDS011;64233;51.486;6.332;2023-11-18T06:13:42;32.55;;;10.95;;
75639;SDS011;64233;51.486;6.332;2023-11-18T06:16:18;30.65;;;12.30;;
75639;SDS011;64233;51.486;6.332;2023-11-18T06:18:58;27.17;;;11.20;;
75639;SDS011;64233;51.486;6.332;2023-11-18T06:21:24;29.33;;;11.20;;
75639;SDS011;64233;51.486;6.332;2023-11-18T06:23:54;27.85;;;11.50;;
75639;SDS011;64233;51.486;6.332;2023-11-18T06:26:20;31.98;;;12.48;;
75639;SDS011;64233;51.486;6.332;2023-11-18T06:28:47;28.10;;;9.88;;
75639;SDS011;64233;51.486;6.332;2023-11-18T06:31:16;29.38;;;11.00;;
75639;SDS011;64233;51.486;6.332;2023-11-18T06:33:42;28.27;;;11.27;;
75639;SDS011;64233;51.486;6.332;2023-11-18T06:36:09;24.52;;;10.45;;
75639;SDS011;64233;51.486;6.332;2023-11-18T06:38:36;23.20;;;10.55;;
75639;SDS011;64233;51.486;6.332;2023-11-18T06:41:02;26.02;;;9.85;;
75639;SDS011;64233;51.486;6.332;2023-11-18T06:43:28;24.83;;;10.38;;
75639;SDS011;64233;51.486;6.332;2023-11-18T06:46:06;21.65;;;9.13;;
75639;SDS011;64233;51.486;6.332;2023-11-18T06:48:35;27.30;;;12.02;;
75639;SDS011;64233;51.486;6.332;2023-11-18T06:51:00;30.60;;;11.05;;
75639;SDS011;64233;51.486;6.332;2023-11-18T06:53:27;23.98;;;10.73;;
75639;SDS011;64233;51.486;6.332;2023-11-18T06:55:52;23.50;;;10.55;;
75639;SDS011;64233;51.486;6.332;2023-11-18T06:58:17;23.13;;;9.75;;
75639;SDS011;64233;51.486;6.332;2023-11-18T07:00:43;24.60;;;8.95;;
75639;SDS011;64233;51.486;6.332;2023-11-18T07:03:08;20.77;;;10.15;;
75639;SDS011;64233;51.486;6.332;2023-11-18T07:05:33;19.48;;;9.30;;
75639;SDS011;64233;51.486;6.332;2023-11-18T07:07:59;26.05;;;9.88;;
75639;SDS011;64233;51.486;6.332;2023-11-18T07:10:24;23.23;;;9.43;;
75639;SDS011;64233;51.486;6.332;2023-11-18T07:12:50;31.08;;;12.07;;
75639;SDS011;64233;51.486;6.332;2023-11-18T07:15:15;23.90;;;11.02;;
75639;SDS011;64233;51.486;6.332;2023-11-18T07:17:41;28.05;;;10.30;;
75639;SDS011;64233;51.486;6.332;2023-11-18T07:20:07;27.58;;;11.88;;
75639;SDS011;64233;51.486;6.332;2023-11-18T07:22:36;30.40;;;12.30;;
75639;SDS011;64233;51.486;6.332;2023-11-18T07:25:01;28.08;;;11.70;;
75639;SDS011;64233;51.486;6.332;2023-11-18T07:27:27;22.55;;;10.40;;
75639;SDS011;64233;51.486;6.332;2023-11-18T07:29:53;22.65;;;8.90;;
75639;SDS011;64233;51.486;6.332;2023-11-18T07:32:18;24.88;;;11.40;;
75639;SDS011;64233;51.486;6.332;2023-11-18T07:34:44;19.65;;;9.30;;
75639;SDS011;64233;51.486;6.332;2023-11-18T07:37:09;21.65;;;9.00;;
75639;SDS011;64233;51.486;6.332;2023-11-18T07:39:36;21.83;;;10.40;;
75639;SDS011;64233;51.486;6.332;2023-11-18T07:42:13;18.88;;;8.88;;
75639;SDS011;64233;51.486;6.332;2023-11-18T07:44:39;17.95;;;8.32;;
75639;SDS011;64233;51.486;6.332;2023-11-18T07:47:05;20.95;;;9.00;;
75639;SDS011;64233;51.486;6.332;2023-11-18T07:49:30;23.33;;;9.23;;
75639;SDS011;64233;51.486;6.332;2023-11-18T07:52:00;18.90;;;9.15;;
75639;SDS011;64233;51.486;6.332;2023-11-18T07:54:25;13.68;;;7.45;;
75639;SDS011;64233;51.486;6.332;2023-11-18T07:56:51;21.85;;;9.43;;
75639;SDS011;64233;51.486;6.332;2023-11-18T07:59:17;22.63;;;8.20;;
75639;SDS011;64233;51.486;6.332;2023-11-18T08:01:43;20.80;;;7.40;;
75639;SDS011;64233;51.486;6.332;2023-11-18T08:04:09;20.92;;;8.25;;
75639;SDS011;64233;51.486;6.332;2023-11-18T08:06:34;20.75;;;8.18;;
75639;SDS011;64233;51.486;6.332;2023-11-18T08:08:59;16.70;;;8.32;;
75639;SDS011;64233;51.486;6.332;2023-11-18T08:11:25;18.23;;;8.13;;
75639;SDS011;64233;51.486;6.332;2023-11-18T08:13:50;21.23;;;9.32;;
75639;SDS011;64233;51.486;6.332;2023-11-18T08:16:16;16.65;;;8.57;;
75639;SDS011;64233;51.486;6.332;2023-11-18T08:18:41;20.08;;;10.23;;
75639;SDS011;64233;51.486;6.332;2023-11-18T08:21:07;17.38;;;7.55;;
75639;SDS011;64233;51.486;6.332;2023-11-18T08:23:32;24.13;;;9.18;;
75639;SDS011;64233;51.486;6.332;2023-11-18T08:25:58;23.42;;;9.18;;
75639;SDS011;64233;51.486;6.332;2023-11-18T08:28:24;21.20;;;9.10;;
75639;SDS011;64233;51.486;6.332;2023-11-18T08:30:50;18.05;;;8.68;;
75639;SDS011;64233;51.486;6.332;2023-11-18T08:33:16;19.33;;;7.78;;
75639;SDS011;64233;51.486;6.332;2023-11-18T08:35:42;21.48;;;8.75;;
75639;SDS011;64233;51.486;6.332;2023-11-18T08:38:07;17.08;;;8.95;;
75639;SDS011;64233;51.486;6.332;2023-11-18T08:40:32;18.33;;;9.45;;
75639;SDS011;64233;51.486;6.332;2023-11-18T08:42:59;17.08;;;7.80;;
75639;SDS011;64233;51.486;6.332;2023-11-18T08:45:26;19.08;;;8.75;;
75639;SDS011;64233;51.486;6.332;2023-11-18T08:47:58;24.25;;;9.77;;
75639;SDS011;64233;51.486;6.332;2023-11-18T08:50:26;20.00;;;8.68;;
75639;SDS011;64233;51.486;6.332;2023-11-18T08:52:52;17.85;;;7.90;;
75639;SDS011;64233;51.486;6.332;2023-11-18T08:55:25;15.50;;;7.93;;
75639;SDS011;64233;51.486;6.332;2023-11-18T08:58:04;14.90;;;7.22;;
75639;SDS011;64233;51.486;6.332;2023-11-18T09:00:41;19.35;;;7.15;;
75639;SDS011;64233;51.486;6.332;2023-11-18T09:03:13;16.88;;;7.65;;
75639;SDS011;64233;51.486;6.332;2023-11-18T09:06:00;14.68;;;7.32;;
75639;SDS011;64233;51.486;6.332;2023-11-18T09:08:31;17.45;;;8.27;;
75639;SDS011;64233;51.486;6.332;2023-11-18T09:11:01;15.52;;;6.68;;
75639;SDS011;64233;51.486;6.332;2023-11-18T09:13:30;15.15;;;6.53;;
75639;SDS011;64233;51.486;6.332;2023-11-18T09:15:59;15.82;;;7.82;;
75639;SDS011;64233;51.486;6.332;2023-11-18T09:18:27;16.00;;;7.07;;
75639;SDS011;64233;51.486;6.332;2023-11-18T09:20:55;18.27;;;7.13;;
75639;SDS011;64233;51.486;6.332;2023-11-18T09:23:21;9.40;;;5.15;;
75639;SDS011;64233;51.486;6.332;2023-11-18T09:25:48;18.05;;;6.03;;
75639;SDS011;64233;51.486;6.332;2023-11-18T09:28:14;13.00;;;6.47;;
75639;SDS011;64233;51.486;6.332;2023-11-18T09:30:41;10.20;;;6.38;;
75639;SDS011;64233;51.486;6.332;2023-11-18T09:33:22;12.32;;;5.43;;
75639;SDS011;64233;51.486;6.332;2023-11-18T09:35:51;15.35;;;6.72;;
75639;SDS011;64233;51.486;6.332;2023-11-18T09:38:20;10.32;;;6.00;;
75639;SDS011;64233;51.486;6.332;2023-11-18T09:40:47;11.90;;;6.78;;
75639;SDS011;64233;51.486;6.332;2023-11-18T09:43:13;13.63;;;6.47;;
75639;SDS011;64233;51.486;6.332;2023-11-18T09:45:40;11.02;;;5.30;;
75639;SDS011;64233;51.486;6.332;2023-11-18T09:48:08;12.02;;;6.22;;
75639;SDS011;64233;51.486;6.332;2023-11-18T09:50:34;11.98;;;6.10;;
75639;SDS011;64233;51.486;6.332;2023-11-18T09:53:03;12.27;;;5.32;;
75639;SDS011;64233;51.486;6.332;2023-11-18T09:55:42;10.05;;;5.25;;
75639;SDS011;64233;51.486;6.332;2023-11-18T09:58:15;10.48;;;4.97;;
75639;SDS011;64233;51.486;6.332;2023-11-18T10:00:44;13.55;;;6.15;;
75639;SDS011;64233;51.486;6.332;2023-11-18T10:03:15;17.30;;;6.68;;
75639;SDS011;64233;51.486;6.332;2023-11-18T10:05:41;9.63;;;3.95;;
75639;SDS011;64233;51.486;6.332;2023-11-18T10:08:07;11.13;;;6.05;;
75639;SDS011;64233;51.486;6.332;2023-11-18T10:10:32;12.18;;;5.35;;
75639;SDS011;64233;51.486;6.332;2023-11-18T10:13:01;15.60;;;5.72;;
75639;SDS011;64233;51.486;6.332;2023-11-18T10:15:30;11.52;;;5.47;;
75639;SDS011;64233;51.486;6.332;2023-11-18T10:17:56;9.35;;;4.68;;
75639;SDS011;64233;51.486;6.332;2023-11-18T10:23:13;13.50;;;5.82;;
75639;SDS011;64233;51.486;6.332;2023-11-18T10:25:51;12.27;;;5.45;;
75639;SDS011;64233;51.486;6.332;2023-11-18T10:28:24;12.80;;;5.80;;
75639;SDS011;64233;51.486;6.332;2023-11-18T10:30:52;6.82;;;4.53;;
75639;SDS011;64233;51.486;6.332;2023-11-18T10:33:28;11.88;;;5.38;;
75639;SDS011;64233;51.486;6.332;2023-11-18T10:35:55;10.02;;;5.35;;
75639;SDS011;64233;51.486;6.332;2023-11-18T10:38:22;10.23;;;5.20;;
75639;SDS011;64233;51.486;6.332;2023-11-18T10:40:53;14.85;;;6.45;;
75639;SDS011;64233;51.486;6.332;2023-11-18T10:43:23;1.63;;;0.90;;
75639;SDS011;64233;51.486;6.332;2023-11-18T10:46:06;7.38;;;4.50;;
75639;SDS011;64233;51.486;6.332;2023-11-18T10:48:37;16.73;;;5.07;;
75639;SDS011;64233;51.486;6.332;2023-11-18T10:51:08;9.88;;;4.60;;
75639;SDS011;64233;51.486;6.332;2023-11-18T10:53:38;9.15;;;4.30;;
75639;SDS011;64233;51.486;6.332;2023-11-18T10:56:05;10.82;;;4.32;;
75639;SDS011;64233;51.486;6.332;2023-11-18T10:58:36;8.05;;;4.43;;
75639;SDS011;64233;51.486;6.332;2023-11-18T11:01:06;9.43;;;4.45;;
75639;SDS011;64233;51.486;6.332;2023-11-18T11:03:38;11.02;;;4.72;;
75639;SDS011;64233;51.486;6.332;2023-11-18T11:06:18;9.57;;;4.90;;
75639;SDS011;64233;51.486;6.332;2023-11-18T11:08:48;8.07;;;4.68;;
75639;SDS011;64233;51.486;6.332;2023-11-18T11:11:14;10.00;;;6.13;;
75639;SDS011;64233;51.486;6.332;2023-11-18T11:13:42;7.95;;;4.38;;
75639;SDS011;64233;51.486;6.332;2023-11-18T11:16:09;10.35;;;4.88;;
75639;SDS011;64233;51.486;6.332;2023-11-18T11:18:37;11.90;;;5.53;;
75639;SDS011;64233;51.486;6.332;2023-11-18T11:21:14;9.02;;;5.60;;
75639;SDS011;64233;51.486;6.332;2023-11-18T11:23:55;10.40;;;5.63;;
75639;SDS011;64233;51.486;6.332;2023-11-18T11:26:43;8.88;;;4.72;;
75639;SDS011;64233;51.486;6.332;2023-11-18T11:29:30;12.80;;;4.55;;
75639;SDS011;64233;51.486;6.332;2023-11-18T11:35:19;8.98;;;5.05;;
75639;SDS011;64233;51.486;6.332;2023-11-18T11:37:48;6.60;;;4.70;;
75639;SDS011;64233;51.486;6.332;2023-11-18T11:40:15;10.23;;;5.55;;
75639;SDS011;64233;51.486;6.332;2023-11-18T11:42:47;10.68;;;4.90;;
75639;SDS011;64233;51.486;6.332;2023-11-18T11:45:19;7.82;;;4.50;;
75639;SDS011;64233;51.486;6.332;2023-11-18T11:47:50;9.95;;;5.35;;
75639;SDS011;64233;51.486;6.332;2023-11-18T11:50:19;9.98;;;4.90;;
75639;SDS011;64233;51.486;6.332;2023-11-18T11:52:58;10.20;;;5.40;;
75639;SDS011;64233;51.486;6.332;2023-11-18T11:55:41;8.00;;;5.05;;
75639;SDS011;64233;51.486;6.332;2023-11-18T11:58:26;6.85;;;4.10;;
75639;SDS011;64233;51.486;6.332;2023-11-18T12:00:56;11.65;;;4.40;;
75639;SDS011;64233;51.486;6.332;2023-11-18T12:03:24;6.70;;;3.50;;
75639;SDS011;64233;51.486;6.332;2023-11-18T12:05:49;8.55;;;4.00;;
75639;SDS011;64233;51.486;6.332;2023-11-18T12:08:21;6.82;;;4.00;;
75639;SDS011;64233;51.486;6.332;2023-11-18T12:10:51;8.98;;;4.93;;
75639;SDS011;64233;51.486;6.332;2023-11-18T12:13:21;10.55;;;4.38;;
75639;SDS011;64233;51.486;6.332;2023-11-18T12:18:28;7.63;;;3.50;;
75639;SDS011;64233;51.486;6.332;2023-11-18T12:20:56;7.90;;;3.70;;
75639;SDS011;64233;51.486;6.332;2023-11-18T12:23:23;6.53;;;4.38;;
75639;SDS011;64233;51.486;6.332;2023-11-18T12:25:50;9.45;;;4.60;;
75639;SDS011;64233;51.486;6.332;2023-11-18T12:28:29;6.78;;;4.50;;
75639;SDS011;64233;51.486;6.332;2023-11-18T12:30:59;4.70;;;2.95;;
75639;SDS011;64233;51.486;6.332;2023-11-18T12:33:51;9.63;;;5.10;;
75639;SDS011;64233;51.486;6.332;2023-11-18T12:42:20;9.15;;;4.35;;
75639;SDS011;64233;51.486;6.332;2023-11-18T12:47:40;6.00;;;3.67;;
75639;SDS011;64233;51.486;6.332;2023-11-18T12:50:09;5.68;;;3.53;;
75639;SDS011;64233;51.486;6.332;2023-11-18T12:52:42;5.82;;;3.47;;
75639;SDS011;64233;51.486;6.332;2023-11-18T12:55:09;8.77;;;4.50;;
75639;SDS011;64233;51.486;6.332;2023-11-18T12:57:45;6.90;;;3.97;;
75639;SDS011;64233;51.486;6.332;2023-11-18T13:00:11;9.02;;;3.20;;
75639;SDS011;64233;51.486;6.332;2023-11-18T13:02:37;6.57;;;3.40;;
75639;SDS011;64233;51.486;6.332;2023-11-18T13:05:07;4.47;;;3.10;;
75639;SDS011;64233;51.486;6.332;2023-11-18T13:07:38;5.05;;;3.05;;
75639;SDS011;64233;51.486;6.332;2023-11-18T13:10:05;6.25;;;2.45;;
75639;SDS011;64233;51.486;6.332;2023-11-18T13:12:31;10.15;;;3.72;;
75639;SDS011;64233;51.486;6.332;2023-11-18T13:14:56;5.93;;;2.83;;
75639;SDS011;64233;51.486;6.332;2023-11-18T13:17:22;4.53;;;2.83;;
75639;SDS011;64233;51.486;6.332;2023-11-18T13:19:47;5.05;;;2.97;;
75639;SDS011;64233;51.486;6.332;2023-11-18T13:22:16;10.98;;;3.88;;
75639;SDS011;64233;51.486;6.332;2023-11-18T13:24:44;5.18;;;2.95;;
75639;SDS011;64233;51.486;6.332;2023-11-18T13:27:10;5.50;;;2.92;;
75639;SDS011;64233;51.486;6.332;2023-11-18T13:29:39;5.88;;;3.05;;
75639;SDS011;64233;51.486;6.332;2023-11-18T13:32:04;7.97;;;2.35;;
75639;SDS011;64233;51.486;6.332;2023-11-18T13:34:32;5.15;;;2.90;;
75639;SDS011;64233;51.486;6.332;2023-11-18T13:37:00;10.63;;;3.40;;
75639;SDS011;64233;51.486;6.332;2023-11-18T13:39:26;2.42;;;1.38;;
75639;SDS011;64233;51.486;6.332;2023-11-18T13:41:56;3.80;;;2.83;;
75639;SDS011;64233;51.486;6.332;2023-11-18T13:44:31;7.78;;;2.42;;
75639;SDS011;64233;51.486;6.332;2023-11-18T13:47:07;0.63;;;0.63;;
75639;SDS011;64233;51.486;6.332;2023-11-18T13:49:36;3.45;;;1.90;;
75639;SDS011;64233;51.486;6.332;2023-11-18T13:52:05;3.13;;;1.85;;
75639;SDS011;64233;51.486;6.332;2023-11-18T13:54:32;2.72;;;1.95;;
75639;SDS011;64233;51.486;6.332;2023-11-18T13:57:01;0.95;;;0.93;;
75639;SDS011;64233;51.486;6.332;2023-11-18T13:59:28;5.57;;;1.98;;
75639;SDS011;64233;51.486;6.332;2023-11-18T14:01:53;1.58;;;1.02;;
75639;SDS011;64233;51.486;6.332;2023-11-18T14:04:39;7.65;;;2.38;;
75639;SDS011;64233;51.486;6.332;2023-11-18T14:07:04;2.45;;;1.58;;
75639;SDS011;64233;51.486;6.332;2023-11-18T14:09:32;2.92;;;2.08;;
75639;SDS011;64233;51.486;6.332;2023-11-18T14:12:05;2.35;;;2.10;;
75639;SDS011;64233;51.486;6.332;2023-11-18T14:14:31;2.50;;;1.90;;
75639;SDS011;64233;51.486;6.332;2023-11-18T14:16:57;4.90;;;2.03;;
75639;SDS011;64233;51.486;6.332;2023-11-18T14:19:24;3.80;;;1.80;;
75639;SDS011;64233;51.486;6.332;2023-11-18T14:21:50;8.85;;;2.65;;
75639;SDS011;64233;51.486;6.332;2023-11-18T14:24:16;4.75;;;2.60;;
75639;SDS011;64233;51.486;6.332;2023-11-18T14:26:42;2.67;;;2.30;;
75639;SDS011;64233;51.486;6.332;2023-11-18T14:29:08;2.90;;;2.03;;
75639;SDS011;64233;51.486;6.332;2023-11-18T14:31:34;3.30;;;2.10;;
75639;SDS011;64233;51.486;6.332;2023-11-18T14:33:59;2.88;;;2.25;;
75639;SDS011;64233;51.486;6.332;2023-11-18T14:36:25;2.00;;;1.75;;
75639;SDS011;64233;51.486;6.332;2023-11-18T14:38:51;2.95;;;2.15;;
75639;SDS011;64233;51.486;6.332;2023-11-18T14:41:16;3.35;;;1.73;;
75639;SDS011;64233;51.486;6.332;2023-11-18T14:43:42;3.05;;;2.42;;
75639;SDS011;64233;51.486;6.332;2023-11-18T14:46:07;3.20;;;1.70;;
75639;SDS011;64233;51.486;6.332;2023-11-18T14:48:33;4.47;;;2.10;;
75639;SDS011;64233;51.486;6.332;2023-11-18T14:50:59;3.35;;;1.90;;
75639;SDS011;64233;51.486;6.332;2023-11-18T14:53:25;4.13;;;2.20;;
75639;SDS011;64233;51.486;6.332;2023-11-18T14:55:50;1.33;;;1.23;;